sensor_id;sensor_type;location;lat;lon;timestamp;pressure;altitude;pressure_sealevel;temperature;humidity
49311;BME280;35177;45.900;5.946;2022-08-27T00:02:04;97281.97;;;16.68;100.00
49311;BME280;35177;45.900;5.946;2022-08-27T00:04:30;97283.88;;;16.64;100.00
49311;BME280;35177;45.900;5.946;2022-08-27T00:06:55;97283.25;;;16.70;100.00
49311;BME280;35177;45.900;5.946;2022-08-27T00:09:21;97288.38;;;16.68;100.00
49311;BME280;35177;45.900;5.946;2022-08-27T00:11:47;97285.88;;;16.63;100.00
49311;BME280;35177;45.900;5.946;2022-08-27T00:14:13;97292.28;;;16.48;100.00
49311;BME280;35177;45.900;5.946;2022-08-27T00:16:39;97286.59;;;16.28;100.00
49311;BME280;35177;45.900;5.946;2022-08-27T00:19:05;97292.56;;;16.11;100.00
49311;BME280;35177;45.900;5.946;2022-08-27T00:21:30;97278.56;;;16.11;100.00
49311;BME280;35177;45.900;5.946;2022-08-27T00:23:57;97280.81;;;16.21;100.00
49311;BME280;35177;45.900;5.946;2022-08-27T00:26:23;97289.06;;;16.14;100.00
49311;BME280;35177;45.900;5.946;2022-08-27T00:28:49;97281.63;;;16.05;100.00
49311;BME280;35177;45.900;5.946;2022-08-27T00:31:16;97286.41;;;16.05;100.00
49311;BME280;35177;45.900;5.946;2022-08-27T00:33:41;97278.09;;;16.09;100.00
49311;BME280;35177;45.900;5.946;2022-08-27T00:36:08;97282.72;;;16.17;100.00
49311;BME280;35177;45.900;5.946;2022-08-27T00:38:35;97288.75;;;16.03;100.00
49311;BME280;35177;45.900;5.946;2022-08-27T00:41:01;97291.75;;;15.94;100.00
49311;BME280;35177;45.900;5.946;2022-08-27T00:43:43;97296.69;;;16.01;100.00
49311;BME280;35177;45.900;5.946;2022-08-27T00:46:22;97289.38;;;15.96;100.00
49311;BME280;35177;45.900;5.946;2022-08-27T00:48:50;97293.53;;;15.74;100.00
49311;BME280;35177;45.900;5.946;2022-08-27T00:51:17;97296.13;;;15.67;100.00
49311;BME280;35177;45.900;5.946;2022-08-27T00:53:46;97301.72;;;15.67;100.00
49311;BME280;35177;45.900;5.946;2022-08-27T00:56:20;97301.69;;;15.79;100.00
49311;BME280;35177;45.900;5.946;2022-08-27T00:58:50;97298.22;;;15.82;100.00
49311;BME280;35177;45.900;5.946;2022-08-27T01:01:20;97293.88;;;15.56;100.00
49311;BME280;35177;45.900;5.946;2022-08-27T01:03:48;97291.88;;;15.57;100.00
49311;BME280;35177;45.900;5.946;2022-08-27T01:06:17;97294.38;;;15.46;100.00
49311;BME280;35177;45.900;5.946;2022-08-27T01:08:47;97301.47;;;15.56;100.00
49311;BME280;35177;45.900;5.946;2022-08-27T01:11:15;97294.78;;;15.89;100.00
49311;BME280;35177;45.900;5.946;2022-08-27T01:13:41;97285.31;;;15.94;100.00
49311;BME280;35177;45.900;5.946;2022-08-27T01:16:08;97283.78;;;15.96;100.00
49311;BME280;35177;45.900;5.946;2022-08-27T01:18:35;97285.16;;;15.74;100.00
49311;BME280;35177;45.900;5.946;2022-08-27T01:21:25;97285.47;;;15.85;100.00
49311;BME280;35177;45.900;5.946;2022-08-27T01:26:44;97289.44;;;15.84;100.00
49311;BME280;35177;45.900;5.946;2022-08-27T01:29:09;97286.41;;;15.77;100.00
49311;BME280;35177;45.900;5.946;2022-08-27T01:31:36;97285.00;;;15.83;100.00
49311;BME280;35177;45.900;5.946;2022-08-27T01:34:04;97275.97;;;15.73;100.00
49311;BME280;35177;45.900;5.946;2022-08-27T01:36:30;97280.81;;;15.77;100.00
49311;BME280;35177;45.900;5.946;2022-08-27T01:38:56;97283.41;;;15.69;100.00
49311;BME280;35177;45.900;5.946;2022-08-27T01:41:22;97282.16;;;15.67;100.00
49311;BME280;35177;45.900;5.946;2022-08-27T01:43:48;97277.50;;;15.71;100.00
49311;BME280;35177;45.900;5.946;2022-08-27T01:46:14;97275.59;;;15.47;100.00
49311;BME280;35177;45.900;5.946;2022-08-27T01:48:40;97271.81;;;15.39;100.00
49311;BME280;35177;45.900;5.946;2022-08-27T01:51:05;97269.34;;;15.37;100.00
49311;BME280;35177;45.900;5.946;2022-08-27T01:53:31;97265.28;;;15.35;100.00
49311;BME280;35177;45.900;5.946;2022-08-27T01:55:57;97271.97;;;15.18;100.00
49311;BME280;35177;45.900;5.946;2022-08-27T01:58:26;97270.41;;;14.92;100.00
49311;BME280;35177;45.900;5.946;2022-08-27T02:00:56;97265.06;;;14.87;100.00
49311;BME280;35177;45.900;5.946;2022-08-27T02:03:23;97272.50;;;14.95;100.00
49311;BME280;35177;45.900;5.946;2022-08-27T02:05:48;97266.19;;;15.10;100.00
49311;BME280;35177;45.900;5.946;2022-08-27T02:08:15;97257.03;;;15.26;100.00
49311;BME280;35177;45.900;5.946;2022-08-27T02:10:42;97261.63;;;15.47;100.00
49311;BME280;35177;45.900;5.946;2022-08-27T02:13:08;97256.09;;;15.34;100.00
49311;BME280;35177;45.900;5.946;2022-08-27T02:15:36;97256.50;;;15.20;100.00
49311;BME280;35177;45.900;5.946;2022-08-27T02:18:03;97267.38;;;14.97;100.00
49311;BME280;35177;45.900;5.946;2022-08-27T02:20:28;97258.50;;;15.07;100.00
49311;BME280;35177;45.900;5.946;2022-08-27T02:22:55;97266.72;;;14.75;100.00
49311;BME280;35177;45.900;5.946;2022-08-27T02:25:21;97259.50;;;14.74;100.00
49311;BME280;35177;45.900;5.946;2022-08-27T02:27:48;97262.75;;;14.64;100.00
49311;BME280;35177;45.900;5.946;2022-08-27T02:30:17;97259.47;;;14.87;100.00
49311;BME280;35177;45.900;5.946;2022-08-27T02:32:45;97264.72;;;14.88;100.00
49311;BME280;35177;45.900;5.946;2022-08-27T02:35:16;97256.63;;;15.12;100.00
49311;BME280;35177;45.900;5.946;2022-08-27T02:37:42;97258.50;;;15.07;100.00
49311;BME280;35177;45.900;5.946;2022-08-27T02:40:11;97263.50;;;15.02;100.00
49311;BME280;35177;45.900;5.946;2022-08-27T02:42:41;97258.66;;;14.99;100.00
49311;BME280;35177;45.900;5.946;2022-08-27T02:45:07;97251.75;;;15.08;100.00
49311;BME280;35177;45.900;5.946;2022-08-27T02:47:33;97258.25;;;15.13;100.00
49311;BME280;35177;45.900;5.946;2022-08-27T02:49:59;97251.53;;;15.01;100.00
49311;BME280;35177;45.900;5.946;2022-08-27T02:52:26;97245.97;;;14.89;100.00
49311;BME280;35177;45.900;5.946;2022-08-27T02:54:52;97251.44;;;14.85;100.00
49311;BME280;35177;45.900;5.946;2022-08-27T02:57:17;97251.22;;;14.53;100.00
49311;BME280;35177;45.900;5.946;2022-08-27T02:59:43;97252.50;;;14.81;100.00
49311;BME280;35177;45.900;5.946;2022-08-27T03:02:09;97242.75;;;14.74;100.00
49311;BME280;35177;45.900;5.946;2022-08-27T03:04:35;97244.13;;;14.56;100.00
49311;BME280;35177;45.900;5.946;2022-08-27T03:07:01;97244.88;;;14.65;100.00
49311;BME280;35177;45.900;5.946;2022-08-27T03:09:27;97244.00;;;14.77;100.00
49311;BME280;35177;45.900;5.946;2022-08-27T03:11:52;97241.72;;;14.67;100.00
49311;BME280;35177;45.900;5.946;2022-08-27T03:14:19;97237.28;;;14.66;100.00
49311;BME280;35177;45.900;5.946;2022-08-27T03:16:44;97238.66;;;14.59;100.00
49311;BME280;35177;45.900;5.946;2022-08-27T03:19:10;97230.16;;;14.56;100.00
49311;BME280;35177;45.900;5.946;2022-08-27T03:21:36;97234.00;;;14.51;100.00
49311;BME280;35177;45.900;5.946;2022-08-27T03:24:02;97234.84;;;14.39;100.00
49311;BME280;35177;45.900;5.946;2022-08-27T03:26:28;97236.34;;;14.49;100.00
49311;BME280;35177;45.900;5.946;2022-08-27T03:28:54;97241.34;;;14.43;100.00
49311;BME280;35177;45.900;5.946;2022-08-27T03:31:22;97231.56;;;14.50;100.00
49311;BME280;35177;45.900;5.946;2022-08-27T03:34:00;97233.81;;;14.69;100.00
49311;BME280;35177;45.900;5.946;2022-08-27T03:36:28;97232.28;;;14.46;100.00
49311;BME280;35177;45.900;5.946;2022-08-27T03:38:55;97230.88;;;14.28;100.00
49311;BME280;35177;45.900;5.946;2022-08-27T03:41:22;97228.69;;;14.21;100.00
49311;BME280;35177;45.900;5.946;2022-08-27T03:43:49;97231.00;;;14.32;100.00
49311;BME280;35177;45.900;5.946;2022-08-27T03:46:17;97225.75;;;14.30;100.00
49311;BME280;35177;45.900;5.946;2022-08-27T03:48:43;97225.28;;;14.28;100.00
49311;BME280;35177;45.900;5.946;2022-08-27T03:51:10;97222.38;;;14.24;100.00
49311;BME280;35177;45.900;5.946;2022-08-27T03:53:38;97222.41;;;14.37;100.00
49311;BME280;35177;45.900;5.946;2022-08-27T03:56:05;97217.03;;;14.19;100.00
49311;BME280;35177;45.900;5.946;2022-08-27T03:58:32;97225.88;;;14.21;100.00
49311;BME280;35177;45.900;5.946;2022-08-27T04:00:57;97222.50;;;14.28;100.00
49311;BME280;35177;45.900;5.946;2022-08-27T04:03:23;97229.72;;;14.17;100.00
49311;BME280;35177;45.900;5.946;2022-08-27T04:05:53;97223.44;;;14.20;100.00
49311;BME280;35177;45.900;5.946;2022-08-27T04:08:19;97222.63;;;14.19;100.00
49311;BME280;35177;45.900;5.946;2022-08-27T04:10:46;97227.28;;;14.03;100.00
49311;BME280;35177;45.900;5.946;2022-08-27T04:13:12;97229.09;;;13.86;100.00
49311;BME280;35177;45.900;5.946;2022-08-27T04:15:42;97219.47;;;13.96;100.00
49311;BME280;35177;45.900;5.946;2022-08-27T04:18:08;97224.13;;;14.04;100.00
49311;BME280;35177;45.900;5.946;2022-08-27T04:20:34;97214.00;;;14.00;100.00
49311;BME280;35177;45.900;5.946;2022-08-27T04:22:59;97220.28;;;13.96;100.00
49311;BME280;35177;45.900;5.946;2022-08-27T04:25:25;97209.38;;;15.51;100.00
49311;BME280;35177;45.900;5.946;2022-08-27T04:27:51;97214.91;;;16.24;100.00
49311;BME280;35177;45.900;5.946;2022-08-27T04:30:18;97210.31;;;16.67;100.00
49311;BME280;35177;45.900;5.946;2022-08-27T04:32:43;97213.06;;;16.83;100.00
49311;BME280;35177;45.900;5.946;2022-08-27T04:35:09;97210.97;;;16.80;100.00
49311;BME280;35177;45.900;5.946;2022-08-27T04:37:36;97223.38;;;16.95;100.00
49311;BME280;35177;45.900;5.946;2022-08-27T04:40:03;97219.91;;;17.01;100.00
49311;BME280;35177;45.900;5.946;2022-08-27T04:42:29;97228.75;;;17.04;100.00
49311;BME280;35177;45.900;5.946;2022-08-27T04:44:55;97215.25;;;17.09;100.00
49311;BME280;35177;45.900;5.946;2022-08-27T04:47:20;97219.28;;;17.12;100.00
49311;BME280;35177;45.900;5.946;2022-08-27T04:49:46;97222.47;;;17.10;100.00
49311;BME280;35177;45.900;5.946;2022-08-27T04:52:12;97223.31;;;16.08;100.00
49311;BME280;35177;45.900;5.946;2022-08-27T04:54:37;97224.06;;;15.03;100.00
49311;BME280;35177;45.900;5.946;2022-08-27T04:57:05;97233.34;;;14.67;100.00
49311;BME280;35177;45.900;5.946;2022-08-27T04:59:31;97226.59;;;15.08;100.00
49311;BME280;35177;45.900;5.946;2022-08-27T05:01:58;97236.47;;;14.53;100.00
49311;BME280;35177;45.900;5.946;2022-08-27T05:04:23;97239.59;;;14.26;100.00
49311;BME280;35177;45.900;5.946;2022-08-27T05:06:49;97244.16;;;14.31;100.00
49311;BME280;35177;45.900;5.946;2022-08-27T05:09:15;97241.34;;;14.19;100.00
49311;BME280;35177;45.900;5.946;2022-08-27T05:11:42;97239.59;;;14.26;100.00
49311;BME280;35177;45.900;5.946;2022-08-27T05:14:10;97241.13;;;14.24;100.00
49311;BME280;35177;45.900;5.946;2022-08-27T05:16:37;97242.63;;;14.34;100.00
49311;BME280;35177;45.900;5.946;2022-08-27T05:19:08;97253.91;;;14.62;100.00
49311;BME280;35177;45.900;5.946;2022-08-27T05:21:37;97259.25;;;14.55;100.00
49311;BME280;35177;45.900;5.946;2022-08-27T05:24:05;97256.22;;;14.48;100.00
49311;BME280;35177;45.900;5.946;2022-08-27T05:26:33;97254.72;;;14.62;100.00
49311;BME280;35177;45.900;5.946;2022-08-27T05:28:59;97255.53;;;14.75;100.00
49311;BME280;35177;45.900;5.946;2022-08-27T05:31:26;97260.56;;;14.82;100.00
49311;BME280;35177;45.900;5.946;2022-08-27T05:33:52;97262.34;;;15.03;100.00
49311;BME280;35177;45.900;5.946;2022-08-27T05:36:24;97251.44;;;15.54;100.00
49311;BME280;35177;45.900;5.946;2022-08-27T05:38:51;97253.78;;;15.81;100.00
49311;BME280;35177;45.900;5.946;2022-08-27T05:41:20;97247.94;;;15.86;100.00
49311;BME280;35177;45.900;5.946;2022-08-27T05:43:46;97248.13;;;15.93;100.00
49311;BME280;35177;45.900;5.946;2022-08-27T05:46:14;97246.81;;;15.74;100.00
49311;BME280;35177;45.900;5.946;2022-08-27T05:48:41;97248.03;;;15.61;100.00
49311;BME280;35177;45.900;5.946;2022-08-27T05:51:23;97254.34;;;15.58;100.00
49311;BME280;35177;45.900;5.946;2022-08-27T05:53:49;97244.41;;;15.61;100.00
49311;BME280;35177;45.900;5.946;2022-08-27T05:56:18;97248.16;;;15.81;100.00
49311;BME280;35177;45.900;5.946;2022-08-27T05:58:45;97243.53;;;16.17;100.00
49311;BME280;35177;45.900;5.946;2022-08-27T06:01:31;97235.13;;;16.33;100.00
49311;BME280;35177;45.900;5.946;2022-08-27T06:03:58;97240.44;;;16.38;100.00
49311;BME280;35177;45.900;5.946;2022-08-27T06:06:24;97242.47;;;16.73;100.00
49311;BME280;35177;45.900;5.946;2022-08-27T06:08:52;97246.56;;;16.60;100.00
49311;BME280;35177;45.900;5.946;2022-08-27T06:11:18;97247.31;;;16.09;100.00
49311;BME280;35177;45.900;5.946;2022-08-27T06:13:44;97242.72;;;16.16;100.00
49311;BME280;35177;45.900;5.946;2022-08-27T06:16:13;97243.13;;;16.50;100.00
49311;BME280;35177;45.900;5.946;2022-08-27T06:18:42;97242.09;;;16.75;100.00
49311;BME280;35177;45.900;5.946;2022-08-27T06:21:09;97241.53;;;16.85;100.00
49311;BME280;35177;45.900;5.946;2022-08-27T06:23:35;97240.63;;;16.97;100.00
49311;BME280;35177;45.900;5.946;2022-08-27T06:26:04;97246.31;;;16.84;100.00
49311;BME280;35177;45.900;5.946;2022-08-27T06:28:31;97244.50;;;16.92;100.00
49311;BME280;35177;45.900;5.946;2022-08-27T06:31:26;97251.28;;;16.91;100.00
49311;BME280;35177;45.900;5.946;2022-08-27T06:33:56;97248.66;;;16.82;100.00
49311;BME280;35177;45.900;5.946;2022-08-27T06:36:24;97241.09;;;16.83;100.00
49311;BME280;35177;45.900;5.946;2022-08-27T06:38:50;97247.19;;;16.89;100.00
49311;BME280;35177;45.900;5.946;2022-08-27T06:41:18;97247.84;;;16.98;100.00
49311;BME280;35177;45.900;5.946;2022-08-27T06:43:44;97242.56;;;17.32;100.00
49311;BME280;35177;45.900;5.946;2022-08-27T06:46:13;97242.88;;;17.46;100.00
49311;BME280;35177;45.900;5.946;2022-08-27T06:48:39;97237.38;;;17.54;100.00
49311;BME280;35177;45.900;5.946;2022-08-27T06:51:14;97237.91;;;17.59;100.00
49311;BME280;35177;45.900;5.946;2022-08-27T06:53:41;97235.81;;;17.56;100.00
49311;BME280;35177;45.900;5.946;2022-08-27T06:56:08;97235.25;;;17.47;100.00
49311;BME280;35177;45.900;5.946;2022-08-27T06:58:34;97235.47;;;17.38;100.00
49311;BME280;35177;45.900;5.946;2022-08-27T07:01:00;97225.28;;;17.49;100.00
49311;BME280;35177;45.900;5.946;2022-08-27T07:03:26;97237.88;;;17.79;100.00
49311;BME280;35177;45.900;5.946;2022-08-27T07:05:51;97233.63;;;17.46;100.00
49311;BME280;35177;45.900;5.946;2022-08-27T07:08:17;97235.25;;;17.27;100.00
49311;BME280;35177;45.900;5.946;2022-08-27T07:10:43;97223.34;;;17.54;100.00
49311;BME280;35177;45.900;5.946;2022-08-27T07:13:08;97227.25;;;17.69;100.00
49311;BME280;35177;45.900;5.946;2022-08-27T07:15:37;97228.44;;;17.67;100.00
49311;BME280;35177;45.900;5.946;2022-08-27T07:18:03;97230.59;;;17.97;100.00
49311;BME280;35177;45.900;5.946;2022-08-27T07:20:29;97227.22;;;17.88;100.00
49311;BME280;35177;45.900;5.946;2022-08-27T07:22:54;97226.31;;;17.84;100.00
49311;BME280;35177;45.900;5.946;2022-08-27T07:25:23;97236.75;;;17.83;100.00
49311;BME280;35177;45.900;5.946;2022-08-27T07:27:49;97228.56;;;17.94;100.00
49311;BME280;35177;45.900;5.946;2022-08-27T07:30:16;97226.88;;;18.13;100.00
49311;BME280;35177;45.900;5.946;2022-08-27T07:32:42;97230.22;;;18.22;100.00
49311;BME280;35177;45.900;5.946;2022-08-27T07:35:08;97237.22;;;18.09;100.00
49311;BME280;35177;45.900;5.946;2022-08-27T07:37:36;97238.19;;;18.17;100.00
49311;BME280;35177;45.900;5.946;2022-08-27T07:40:07;97232.69;;;18.24;100.00
49311;BME280;35177;45.900;5.946;2022-08-27T07:42:33;97235.78;;;18.19;100.00
49311;BME280;35177;45.900;5.946;2022-08-27T07:45:17;97234.47;;;18.36;100.00
49311;BME280;35177;45.900;5.946;2022-08-27T07:47:43;97233.66;;;18.35;100.00
49311;BME280;35177;45.900;5.946;2022-08-27T07:50:09;97235.50;;;18.51;100.00
49311;BME280;35177;45.900;5.946;2022-08-27T07:52:34;97231.19;;;18.57;100.00
49311;BME280;35177;45.900;5.946;2022-08-27T07:55:00;97236.44;;;18.58;100.00
49311;BME280;35177;45.900;5.946;2022-08-27T07:57:25;97239.78;;;18.68;100.00
49311;BME280;35177;45.900;5.946;2022-08-27T07:59:51;97243.94;;;18.77;100.00
49311;BME280;35177;45.900;5.946;2022-08-27T08:02:18;97241.38;;;18.92;100.00
49311;BME280;35177;45.900;5.946;2022-08-27T08:04:44;97237.53;;;19.04;100.00
49311;BME280;35177;45.900;5.946;2022-08-27T08:07:09;97241.09;;;19.01;100.00
49311;BME280;35177;45.900;5.946;2022-08-27T08:09:35;97246.09;;;19.15;100.00
49311;BME280;35177;45.900;5.946;2022-08-27T08:12:00;97244.41;;;19.40;100.00
49311;BME280;35177;45.900;5.946;2022-08-27T08:14:26;97246.78;;;19.69;100.00
49311;BME280;35177;45.900;5.946;2022-08-27T08:16:52;97244.88;;;19.80;100.00
49311;BME280;35177;45.900;5.946;2022-08-27T08:19:17;97246.78;;;19.72;100.00
49311;BME280;35177;45.900;5.946;2022-08-27T08:21:43;97245.81;;;19.88;100.00
49311;BME280;35177;45.900;5.946;2022-08-27T08:24:09;97246.59;;;19.88;100.00
49311;BME280;35177;45.900;5.946;2022-08-27T08:26:35;97242.22;;;19.91;100.00
49311;BME280;35177;45.900;5.946;2022-08-27T08:29:00;97241.00;;;19.92;100.00
49311;BME280;35177;45.900;5.946;2022-08-27T08:31:29;97243.56;;;20.08;100.00
49311;BME280;35177;45.900;5.946;2022-08-27T08:33:54;97240.78;;;20.12;100.00
49311;BME280;35177;45.900;5.946;2022-08-27T08:36:20;97242.88;;;20.18;100.00
49311;BME280;35177;45.900;5.946;2022-08-27T08:38:46;97242.63;;;20.34;100.00
49311;BME280;35177;45.900;5.946;2022-08-27T08:47:25;97236.75;;;20.54;100.00
49311;BME280;35177;45.900;5.946;2022-08-27T08:50:20;97237.19;;;20.63;100.00
49311;BME280;35177;45.900;5.946;2022-08-27T08:55:50;97237.84;;;20.91;100.00
49311;BME280;35177;45.900;5.946;2022-08-27T08:58:31;97229.81;;;21.00;100.00
49311;BME280;35177;45.900;5.946;2022-08-27T09:01:02;97230.34;;;21.24;100.00
49311;BME280;35177;45.900;5.946;2022-08-27T09:03:28;97229.56;;;21.30;100.00
49311;BME280;35177;45.900;5.946;2022-08-27T09:06:09;97230.38;;;21.31;100.00
49311;BME280;35177;45.900;5.946;2022-08-27T09:08:40;97230.44;;;21.45;100.00
49311;BME280;35177;45.900;5.946;2022-08-27T09:13:49;97228.97;;;21.91;100.00
49311;BME280;35177;45.900;5.946;2022-08-27T09:16:15;97229.03;;;22.09;100.00
49311;BME280;35177;45.900;5.946;2022-08-27T09:18:42;97227.44;;;22.37;100.00
49311;BME280;35177;45.900;5.946;2022-08-27T09:24:12;97216.50;;;22.97;100.00
49311;BME280;35177;45.900;5.946;2022-08-27T09:26:41;97220.91;;;23.23;100.00
49311;BME280;35177;45.900;5.946;2022-08-27T09:29:10;97213.22;;;23.20;100.00
49311;BME280;35177;45.900;5.946;2022-08-27T09:31:53;97221.53;;;23.64;100.00
49311;BME280;35177;45.900;5.946;2022-08-27T09:34:20;97213.59;;;23.26;100.00
49311;BME280;35177;45.900;5.946;2022-08-27T09:37:09;97224.00;;;23.54;100.00
49311;BME280;35177;45.900;5.946;2022-08-27T09:39:47;97214.16;;;23.84;100.00
49311;BME280;35177;45.900;5.946;2022-08-27T09:42:40;97207.38;;;24.31;100.00
49311;BME280;35177;45.900;5.946;2022-08-27T09:45:28;97213.50;;;24.75;100.00
49311;BME280;35177;45.900;5.946;2022-08-27T09:48:01;97208.13;;;24.88;100.00
49311;BME280;35177;45.900;5.946;2022-08-27T09:50:34;97211.09;;;25.11;100.00
49311;BME280;35177;45.900;5.946;2022-08-27T09:53:00;97208.78;;;25.41;100.00
49311;BME280;35177;45.900;5.946;2022-08-27T09:55:30;97213.13;;;26.11;99.76
49311;BME280;35177;45.900;5.946;2022-08-27T09:58:04;97214.84;;;25.74;100.00
49311;BME280;35177;45.900;5.946;2022-08-27T10:00:37;97203.56;;;26.25;100.00
49311;BME280;35177;45.900;5.946;2022-08-27T10:03:05;97195.78;;;26.29;100.00
49311;BME280;35177;45.900;5.946;2022-08-27T10:05:37;97197.44;;;26.98;99.11
49311;BME280;35177;45.900;5.946;2022-08-27T10:08:12;97195.56;;;27.11;94.15
49311;BME280;35177;45.900;5.946;2022-08-27T10:10:53;97204.38;;;26.73;95.64
49311;BME280;35177;45.900;5.946;2022-08-27T10:13:25;97201.94;;;26.75;98.53
49311;BME280;35177;45.900;5.946;2022-08-27T10:18:59;97205.53;;;25.00;100.00
49311;BME280;35177;45.900;5.946;2022-08-27T10:21:36;97208.50;;;24.41;100.00
49311;BME280;35177;45.900;5.946;2022-08-27T10:24:32;97206.53;;;25.21;100.00
49311;BME280;35177;45.900;5.946;2022-08-27T10:30:14;97199.72;;;25.80;100.00
49311;BME280;35177;45.900;5.946;2022-08-27T10:32:49;97197.06;;;25.97;99.46
49311;BME280;35177;45.900;5.946;2022-08-27T10:48:50;97191.34;;;25.70;100.00
49311;BME280;35177;45.900;5.946;2022-08-27T10:51:29;97190.06;;;25.43;100.00
49311;BME280;35177;45.900;5.946;2022-08-27T10:54:05;97185.88;;;25.55;100.00
49311;BME280;35177;45.900;5.946;2022-08-27T10:56:44;97181.75;;;25.56;100.00
49311;BME280;35177;45.900;5.946;2022-08-27T10:59:17;97184.88;;;25.96;100.00
49311;BME280;35177;45.900;5.946;2022-08-27T11:02:14;97174.00;;;26.90;92.64
49311;BME280;35177;45.900;5.946;2022-08-27T11:04:50;97172.84;;;26.87;89.60
49311;BME280;35177;45.900;5.946;2022-08-27T11:07:31;97172.06;;;26.59;89.35
49311;BME280;35177;45.900;5.946;2022-08-27T11:10:16;97164.94;;;26.51;89.95
49311;BME280;35177;45.900;5.946;2022-08-27T11:12:47;97166.81;;;27.05;91.78
49311;BME280;35177;45.900;5.946;2022-08-27T11:15:28;97162.19;;;27.12;89.09
49311;BME280;35177;45.900;5.946;2022-08-27T11:18:10;97153.44;;;27.22;90.28
49311;BME280;35177;45.900;5.946;2022-08-27T11:23:18;97161.75;;;26.45;98.68
49311;BME280;35177;45.900;5.946;2022-08-27T11:25:56;97148.81;;;26.88;92.85
49311;BME280;35177;45.900;5.946;2022-08-27T11:28:45;97143.94;;;27.09;88.42
49311;BME280;35177;45.900;5.946;2022-08-27T11:44:48;97137.31;;;27.72;81.87
49311;BME280;35177;45.900;5.946;2022-08-27T11:47:23;97138.97;;;26.93;77.75
49311;BME280;35177;45.900;5.946;2022-08-27T11:49:52;97148.44;;;26.86;78.08
49311;BME280;35177;45.900;5.946;2022-08-27T11:52:39;97138.38;;;27.22;84.21
49311;BME280;35177;45.900;5.946;2022-08-27T11:57:49;97129.44;;;27.60;76.04
49311;BME280;35177;45.900;5.946;2022-08-27T12:03:29;97121.28;;;27.22;76.57
49311;BME280;35177;45.900;5.946;2022-08-27T12:16:45;97115.66;;;27.38;80.34
49311;BME280;35177;45.900;5.946;2022-08-27T12:25:22;97125.09;;;28.09;75.57
49311;BME280;35177;45.900;5.946;2022-08-27T12:28:04;97120.69;;;27.51;76.54
49311;BME280;35177;45.900;5.946;2022-08-27T12:30:57;97118.00;;;27.97;70.89
49311;BME280;35177;45.900;5.946;2022-08-27T12:33:30;97109.72;;;28.02;77.76
49311;BME280;35177;45.900;5.946;2022-08-27T12:36:04;97106.63;;;28.13;70.45
49311;BME280;35177;45.900;5.946;2022-08-27T12:40:58;97106.78;;;28.39;70.83
49311;BME280;35177;45.900;5.946;2022-08-27T12:43:30;97102.22;;;28.58;76.88
49311;BME280;35177;45.900;5.946;2022-08-27T12:46:03;97091.84;;;28.64;70.41
49311;BME280;35177;45.900;5.946;2022-08-27T12:48:55;97093.22;;;28.43;77.34
49311;BME280;35177;45.900;5.946;2022-08-27T12:51:23;97097.31;;;28.42;67.21
49311;BME280;35177;45.900;5.946;2022-08-27T13:02:22;97096.53;;;28.42;62.63
49311;BME280;35177;45.900;5.946;2022-08-27T13:04:52;97087.88;;;28.29;56.56
49311;BME280;35177;45.900;5.946;2022-08-27T13:07:29;97082.56;;;28.77;67.66
49311;BME280;35177;45.900;5.946;2022-08-27T13:09:54;97081.00;;;28.89;55.62
49311;BME280;35177;45.900;5.946;2022-08-27T13:12:23;97074.56;;;28.84;57.44
49311;BME280;35177;45.900;5.946;2022-08-27T13:14:49;97085.50;;;28.73;62.39
49311;BME280;35177;45.900;5.946;2022-08-27T13:17:22;97084.38;;;28.54;58.94
49311;BME280;35177;45.900;5.946;2022-08-27T13:19:48;97089.34;;;28.66;58.70
49311;BME280;35177;45.900;5.946;2022-08-27T13:22:43;97079.88;;;28.69;59.32
49311;BME280;35177;45.900;5.946;2022-08-27T13:27:58;97069.41;;;27.67;65.60
49311;BME280;35177;45.900;5.946;2022-08-27T13:30:30;97069.88;;;27.99;54.75
49311;BME280;35177;45.900;5.946;2022-08-27T13:32:56;97072.63;;;28.02;59.21
49311;BME280;35177;45.900;5.946;2022-08-27T13:35:22;97054.19;;;28.24;57.12
49311;BME280;35177;45.900;5.946;2022-08-27T13:37:51;97054.88;;;28.44;54.65
49311;BME280;35177;45.900;5.946;2022-08-27T13:40:25;97051.16;;;28.60;55.87
49311;BME280;35177;45.900;5.946;2022-08-27T13:42:54;97047.66;;;28.98;65.14
49311;BME280;35177;45.900;5.946;2022-08-27T13:45:19;97053.50;;;28.49;65.07
49311;BME280;35177;45.900;5.946;2022-08-27T13:47:46;97040.06;;;28.33;58.15
49311;BME280;35177;45.900;5.946;2022-08-27T13:50:20;97038.13;;;28.30;59.01
49311;BME280;35177;45.900;5.946;2022-08-27T13:52:47;97047.47;;;28.30;56.99
49311;BME280;35177;45.900;5.946;2022-08-27T13:55:31;97042.03;;;28.36;58.60
49311;BME280;35177;45.900;5.946;2022-08-27T13:57:57;97037.69;;;28.15;51.36
49311;BME280;35177;45.900;5.946;2022-08-27T14:00:24;97043.47;;;28.28;52.91
49311;BME280;35177;45.900;5.946;2022-08-27T14:02:52;97033.94;;;28.34;56.03
49311;BME280;35177;45.900;5.946;2022-08-27T14:08:11;97028.63;;;28.49;61.30
49311;BME280;35177;45.900;5.946;2022-08-27T14:10:40;97034.97;;;28.41;57.66
49311;BME280;35177;45.900;5.946;2022-08-27T14:15:47;97033.63;;;28.45;61.77
49311;BME280;35177;45.900;5.946;2022-08-27T14:18:26;97030.06;;;28.41;64.16
49311;BME280;35177;45.900;5.946;2022-08-27T14:20:53;97036.09;;;28.14;64.97
49311;BME280;35177;45.900;5.946;2022-08-27T14:23:20;97037.53;;;28.22;63.80
49311;BME280;35177;45.900;5.946;2022-08-27T14:25:46;97032.00;;;28.15;66.43
49311;BME280;35177;45.900;5.946;2022-08-27T14:28:11;97031.78;;;27.72;63.12
49311;BME280;35177;45.900;5.946;2022-08-27T14:30:37;97033.69;;;28.12;70.44
49311;BME280;35177;45.900;5.946;2022-08-27T14:33:03;97028.91;;;28.38;59.12
49311;BME280;35177;45.900;5.946;2022-08-27T14:35:30;97026.63;;;28.17;60.85
49311;BME280;35177;45.900;5.946;2022-08-27T14:37:57;97038.22;;;27.77;65.58
49311;BME280;35177;45.900;5.946;2022-08-27T14:40:25;97031.47;;;27.70;76.06